sensor_id;sensor_type;location;lat;lon;timestamp;P1;durP1;ratioP1;P2;durP2;ratioP2
73120;SDS011;61307;49.628;-1.624;2023-02-15T00:00:21;14.27;;;11.10;;
73120;SDS011;61307;49.628;-1.624;2023-02-15T00:02:48;14.13;;;10.48;;
73120;SDS011;61307;49.628;-1.624;2023-02-15T00:05:15;16.25;;;11.15;;
73120;SDS011;61307;49.628;-1.624;2023-02-15T00:07:43;15.57;;;11.07;;
73120;SDS011;61307;49.628;-1.624;2023-02-15T00:10:10;15.75;;;11.93;;
73120;SDS011;61307;49.628;-1.624;2023-02-15T00:12:37;17.40;;;11.63;;
73120;SDS011;61307;49.628;-1.624;2023-02-15T00:15:05;15.00;;;11.00;;
73120;SDS011;61307;49.628;-1.624;2023-02-15T00:17:34;15.02;;;11.32;;
73120;SDS011;61307;49.628;-1.624;2023-02-15T00:20:01;14.43;;;10.70;;
73120;SDS011;61307;49.628;-1.624;2023-02-15T00:22:28;14.20;;;10.95;;
73120;SDS011;61307;49.628;-1.624;2023-02-15T00:24:55;15.15;;;10.70;;
73120;SDS011;61307;49.628;-1.624;2023-02-15T00:27:23;15.15;;;11.18;;
73120;SDS011;61307;49.628;-1.624;2023-02-15T00:29:50;14.15;;;11.00;;
73120;SDS011;61307;49.628;-1.624;2023-02-15T00:32:17;15.23;;;11.05;;
73120;SDS011;61307;49.628;-1.624;2023-02-15T00:34:45;15.73;;;11.98;;
73120;SDS011;61307;49.628;-1.624;2023-02-15T00:37:13;15.68;;;11.05;;
73120;SDS011;61307;49.628;-1.624;2023-02-15T00:39:40;16.88;;;11.23;;
73120;SDS011;61307;49.628;-1.624;2023-02-15T00:42:07;17.50;;;11.07;;
73120;SDS011;61307;49.628;-1.624;2023-02-15T00:44:34;14.00;;;10.43;;
73120;SDS011;61307;49.628;-1.624;2023-02-15T00:47:01;16.98;;;10.85;;
73120;SDS011;61307;49.628;-1.624;2023-02-15T00:49:28;14.55;;;10.73;;
73120;SDS011;61307;49.628;-1.624;2023-02-15T00:51:57;14.30;;;10.65;;
73120;SDS011;61307;49.628;-1.624;2023-02-15T00:54:24;12.75;;;10.60;;
73120;SDS011;61307;49.628;-1.624;2023-02-15T00:56:51;14.85;;;11.48;;
73120;SDS011;61307;49.628;-1.624;2023-02-15T00:59:19;14.25;;;10.60;;
73120;SDS011;61307;49.628;-1.624;2023-02-15T01:01:46;14.65;;;11.27;;
73120;SDS011;61307;49.628;-1.624;2023-02-15T01:04:13;14.27;;;10.40;;
73120;SDS011;61307;49.628;-1.624;2023-02-15T01:06:40;15.48;;;10.68;;
73120;SDS011;61307;49.628;-1.624;2023-02-15T01:09:09;14.55;;;10.85;;
73120;SDS011;61307;49.628;-1.624;2023-02-15T01:11:38;15.73;;;10.55;;
73120;SDS011;61307;49.628;-1.624;2023-02-15T01:14:05;14.40;;;10.63;;
73120;SDS011;61307;49.628;-1.624;2023-02-15T01:16:33;14.10;;;10.88;;
73120;SDS011;61307;49.628;-1.624;2023-02-15T01:19:00;14.77;;;11.30;;
73120;SDS011;61307;49.628;-1.624;2023-02-15T01:21:28;13.80;;;10.65;;
73120;SDS011;61307;49.628;-1.624;2023-02-15T01:23:55;13.77;;;11.00;;
73120;SDS011;61307;49.628;-1.624;2023-02-15T01:26:24;13.68;;;10.13;;
73120;SDS011;61307;49.628;-1.624;2023-02-15T01:28:51;13.90;;;10.52;;
73120;SDS011;61307;49.628;-1.624;2023-02-15T01:31:18;15.70;;;11.05;;
73120;SDS011;61307;49.628;-1.624;2023-02-15T01:33:47;13.23;;;10.65;;
73120;SDS011;61307;49.628;-1.624;2023-02-15T01:36:14;14.02;;;10.52;;
73120;SDS011;61307;49.628;-1.624;2023-02-15T01:38:42;15.45;;;10.18;;
73120;SDS011;61307;49.628;-1.624;2023-02-15T01:41:09;13.90;;;10.30;;
73120;SDS011;61307;49.628;-1.624;2023-02-15T01:43:54;13.88;;;10.40;;
73120;SDS011;61307;49.628;-1.624;2023-02-15T01:46:24;14.98;;;10.68;;
73120;SDS011;61307;49.628;-1.624;2023-02-15T01:48:54;14.48;;;10.52;;
73120;SDS011;61307;49.628;-1.624;2023-02-15T01:51:26;14.77;;;10.32;;
73120;SDS011;61307;49.628;-1.624;2023-02-15T01:53:56;12.77;;;10.13;;
73120;SDS011;61307;49.628;-1.624;2023-02-15T01:56:27;14.32;;;10.48;;
73120;SDS011;61307;49.628;-1.624;2023-02-15T01:59:02;13.25;;;10.60;;
73120;SDS011;61307;49.628;-1.624;2023-02-15T02:01:33;12.88;;;9.60;;
73120;SDS011;61307;49.628;-1.624;2023-02-15T02:04:03;13.02;;;10.20;;
73120;SDS011;61307;49.628;-1.624;2023-02-15T02:06:36;13.57;;;10.07;;
73120;SDS011;61307;49.628;-1.624;2023-02-15T02:09:05;13.48;;;10.10;;
73120;SDS011;61307;49.628;-1.624;2023-02-15T02:11:33;14.23;;;10.65;;
73120;SDS011;61307;49.628;-1.624;2023-02-15T02:14:02;14.85;;;10.10;;
73120;SDS011;61307;49.628;-1.624;2023-02-15T02:16:32;13.75;;;10.35;;
73120;SDS011;61307;49.628;-1.624;2023-02-15T02:19:12;12.75;;;10.00;;
73120;SDS011;61307;49.628;-1.624;2023-02-15T02:25:12;13.02;;;9.82;;
73120;SDS011;61307;49.628;-1.624;2023-02-15T02:28:04;13.90;;;9.65;;
73120;SDS011;61307;49.628;-1.624;2023-02-15T02:33:58;13.10;;;9.70;;
73120;SDS011;61307;49.628;-1.624;2023-02-15T02:36:32;13.10;;;10.05;;
73120;SDS011;61307;49.628;-1.624;2023-02-15T02:39:09;14.07;;;9.70;;
73120;SDS011;61307;49.628;-1.624;2023-02-15T02:41:45;13.55;;;9.60;;
73120;SDS011;61307;49.628;-1.624;2023-02-15T02:44:22;12.35;;;9.73;;
73120;SDS011;61307;49.628;-1.624;2023-02-15T02:46:53;14.75;;;10.02;;
73120;SDS011;61307;49.628;-1.624;2023-02-15T02:49:32;11.93;;;9.38;;
73120;SDS011;61307;49.628;-1.624;2023-02-15T02:52:03;12.48;;;9.48;;
73120;SDS011;61307;49.628;-1.624;2023-02-15T02:54:32;11.55;;;9.73;;
73120;SDS011;61307;49.628;-1.624;2023-02-15T02:57:01;12.52;;;8.88;;
73120;SDS011;61307;49.628;-1.624;2023-02-15T02:59:32;15.30;;;10.65;;
73120;SDS011;61307;49.628;-1.624;2023-02-15T03:02:03;12.15;;;9.27;;
73120;SDS011;61307;49.628;-1.624;2023-02-15T03:04:40;11.63;;;9.52;;
73120;SDS011;61307;49.628;-1.624;2023-02-15T03:07:12;12.55;;;9.90;;
73120;SDS011;61307;49.628;-1.624;2023-02-15T03:09:47;13.93;;;9.02;;
73120;SDS011;61307;49.628;-1.624;2023-02-15T03:12:18;12.20;;;9.13;;
73120;SDS011;61307;49.628;-1.624;2023-02-15T03:14:48;12.45;;;9.43;;
73120;SDS011;61307;49.628;-1.624;2023-02-15T03:17:18;11.95;;;9.27;;
73120;SDS011;61307;49.628;-1.624;2023-02-15T03:19:51;12.68;;;9.57;;
73120;SDS011;61307;49.628;-1.624;2023-02-15T03:22:23;11.27;;;9.18;;
73120;SDS011;61307;49.628;-1.624;2023-02-15T03:24:56;11.73;;;8.57;;
73120;SDS011;61307;49.628;-1.624;2023-02-15T03:27:26;13.23;;;9.55;;
73120;SDS011;61307;49.628;-1.624;2023-02-15T03:29:58;13.10;;;9.45;;
73120;SDS011;61307;49.628;-1.624;2023-02-15T03:32:28;10.82;;;8.55;;
73120;SDS011;61307;49.628;-1.624;2023-02-15T03:34:59;11.63;;;8.70;;
73120;SDS011;61307;49.628;-1.624;2023-02-15T03:37:28;12.38;;;9.20;;
73120;SDS011;61307;49.628;-1.624;2023-02-15T03:40:02;12.48;;;8.93;;
73120;SDS011;61307;49.628;-1.624;2023-02-15T03:42:48;12.13;;;8.82;;
73120;SDS011;61307;49.628;-1.624;2023-02-15T03:45:22;12.75;;;8.85;;
73120;SDS011;61307;49.628;-1.624;2023-02-15T03:47:54;11.77;;;9.38;;
73120;SDS011;61307;49.628;-1.624;2023-02-15T03:50:27;13.35;;;9.57;;
73120;SDS011;61307;49.628;-1.624;2023-02-15T03:53:14;12.15;;;9.02;;
73120;SDS011;61307;49.628;-1.624;2023-02-15T03:55:46;11.88;;;9.18;;
73120;SDS011;61307;49.628;-1.624;2023-02-15T03:58:13;12.30;;;9.60;;
73120;SDS011;61307;49.628;-1.624;2023-02-15T04:00:59;11.65;;;9.15;;
73120;SDS011;61307;49.628;-1.624;2023-02-15T04:03:48;11.40;;;9.00;;
73120;SDS011;61307;49.628;-1.624;2023-02-15T04:06:21;13.13;;;9.07;;
73120;SDS011;61307;49.628;-1.624;2023-02-15T04:08:48;11.68;;;8.85;;
73120;SDS011;61307;49.628;-1.624;2023-02-15T04:11:32;12.82;;;9.00;;
73120;SDS011;61307;49.628;-1.624;2023-02-15T04:13:59;11.82;;;8.60;;
73120;SDS011;61307;49.628;-1.624;2023-02-15T04:16:46;10.60;;;8.23;;
73120;SDS011;61307;49.628;-1.624;2023-02-15T04:19:12;11.73;;;8.45;;
73120;SDS011;61307;49.628;-1.624;2023-02-15T04:21:58;11.10;;;8.40;;
73120;SDS011;61307;49.628;-1.624;2023-02-15T04:24:42;13.27;;;9.13;;
73120;SDS011;61307;49.628;-1.624;2023-02-15T04:27:27;12.40;;;8.40;;
73120;SDS011;61307;49.628;-1.624;2023-02-15T04:29:54;12.00;;;8.80;;
73120;SDS011;61307;49.628;-1.624;2023-02-15T04:32:21;11.93;;;8.68;;
73120;SDS011;61307;49.628;-1.624;2023-02-15T04:34:48;11.05;;;8.20;;
73120;SDS011;61307;49.628;-1.624;2023-02-15T04:37:17;12.43;;;8.52;;
73120;SDS011;61307;49.628;-1.624;2023-02-15T04:39:44;9.73;;;8.07;;
73120;SDS011;61307;49.628;-1.624;2023-02-15T04:42:11;12.20;;;8.52;;
73120;SDS011;61307;49.628;-1.624;2023-02-15T04:44:38;13.85;;;8.55;;
73120;SDS011;61307;49.628;-1.624;2023-02-15T04:47:05;12.45;;;8.15;;
73120;SDS011;61307;49.628;-1.624;2023-02-15T04:49:33;11.88;;;8.88;;
73120;SDS011;61307;49.628;-1.624;2023-02-15T04:52:00;11.52;;;8.52;;
73120;SDS011;61307;49.628;-1.624;2023-02-15T04:54:29;10.15;;;7.90;;
73120;SDS011;61307;49.628;-1.624;2023-02-15T04:56:56;13.75;;;8.50;;
73120;SDS011;61307;49.628;-1.624;2023-02-15T04:59:23;12.30;;;8.95;;
73120;SDS011;61307;49.628;-1.624;2023-02-15T05:01:50;11.02;;;7.97;;
73120;SDS011;61307;49.628;-1.624;2023-02-15T05:04:17;13.23;;;8.45;;
73120;SDS011;61307;49.628;-1.624;2023-02-15T05:06:45;10.90;;;8.55;;
73120;SDS011;61307;49.628;-1.624;2023-02-15T05:09:12;10.50;;;8.32;;
73120;SDS011;61307;49.628;-1.624;2023-02-15T05:11:40;9.05;;;7.80;;
73120;SDS011;61307;49.628;-1.624;2023-02-15T05:14:08;14.43;;;9.00;;
73120;SDS011;61307;49.628;-1.624;2023-02-15T05:16:35;10.13;;;8.15;;
73120;SDS011;61307;49.628;-1.624;2023-02-15T05:19:03;11.48;;;8.57;;
73120;SDS011;61307;49.628;-1.624;2023-02-15T05:21:30;10.65;;;8.18;;
73120;SDS011;61307;49.628;-1.624;2023-02-15T05:23:58;9.73;;;7.57;;
73120;SDS011;61307;49.628;-1.624;2023-02-15T05:26:25;10.68;;;8.50;;
73120;SDS011;61307;49.628;-1.624;2023-02-15T05:29:12;9.88;;;8.13;;
73120;SDS011;61307;49.628;-1.624;2023-02-15T05:31:39;10.45;;;8.13;;
73120;SDS011;61307;49.628;-1.624;2023-02-15T05:34:07;12.65;;;7.95;;
73120;SDS011;61307;49.628;-1.624;2023-02-15T05:36:34;9.95;;;8.13;;
73120;SDS011;61307;49.628;-1.624;2023-02-15T05:39:01;11.35;;;8.35;;
73120;SDS011;61307;49.628;-1.624;2023-02-15T05:41:31;10.27;;;7.82;;
73120;SDS011;61307;49.628;-1.624;2023-02-15T05:43:58;10.10;;;7.63;;
73120;SDS011;61307;49.628;-1.624;2023-02-15T05:46:27;13.25;;;8.25;;
73120;SDS011;61307;49.628;-1.624;2023-02-15T05:48:54;11.65;;;8.30;;
73120;SDS011;61307;49.628;-1.624;2023-02-15T05:51:21;9.90;;;7.88;;
73120;SDS011;61307;49.628;-1.624;2023-02-15T05:53:48;9.07;;;7.45;;
73120;SDS011;61307;49.628;-1.624;2023-02-15T05:56:15;9.68;;;7.93;;
73120;SDS011;61307;49.628;-1.624;2023-02-15T05:58:42;9.80;;;7.45;;
73120;SDS011;61307;49.628;-1.624;2023-02-15T06:01:10;9.10;;;7.60;;
73120;SDS011;61307;49.628;-1.624;2023-02-15T06:03:40;11.57;;;8.32;;
73120;SDS011;61307;49.628;-1.624;2023-02-15T06:06:07;9.65;;;7.80;;
73120;SDS011;61307;49.628;-1.624;2023-02-15T06:08:35;11.45;;;7.78;;
73120;SDS011;61307;49.628;-1.624;2023-02-15T06:11:03;9.15;;;7.53;;
73120;SDS011;61307;49.628;-1.624;2023-02-15T06:13:31;8.45;;;7.38;;
73120;SDS011;61307;49.628;-1.624;2023-02-15T06:15:59;8.95;;;7.32;;
73120;SDS011;61307;49.628;-1.624;2023-02-15T06:18:26;7.70;;;6.60;;
73120;SDS011;61307;49.628;-1.624;2023-02-15T06:20:56;10.02;;;7.15;;
73120;SDS011;61307;49.628;-1.624;2023-02-15T06:23:23;9.25;;;7.07;;
73120;SDS011;61307;49.628;-1.624;2023-02-15T06:25:50;10.98;;;7.45;;
73120;SDS011;61307;49.628;-1.624;2023-02-15T06:28:17;7.35;;;6.45;;
73120;SDS011;61307;49.628;-1.624;2023-02-15T06:30:45;9.35;;;7.10;;
73120;SDS011;61307;49.628;-1.624;2023-02-15T06:33:12;9.20;;;7.00;;
73120;SDS011;61307;49.628;-1.624;2023-02-15T06:35:40;8.30;;;7.20;;
73120;SDS011;61307;49.628;-1.624;2023-02-15T06:38:08;9.48;;;7.25;;
73120;SDS011;61307;49.628;-1.624;2023-02-15T06:40:35;10.60;;;7.25;;
73120;SDS011;61307;49.628;-1.624;2023-02-15T06:43:02;10.88;;;7.70;;
73120;SDS011;61307;49.628;-1.624;2023-02-15T06:45:29;10.38;;;8.05;;
73120;SDS011;61307;49.628;-1.624;2023-02-15T06:47:57;11.63;;;8.40;;
73120;SDS011;61307;49.628;-1.624;2023-02-15T06:50:24;10.95;;;8.05;;
73120;SDS011;61307;49.628;-1.624;2023-02-15T06:52:54;11.88;;;7.88;;
73120;SDS011;61307;49.628;-1.624;2023-02-15T06:55:24;10.45;;;7.63;;
73120;SDS011;61307;49.628;-1.624;2023-02-15T06:57:51;12.15;;;7.55;;
73120;SDS011;61307;49.628;-1.624;2023-02-15T07:00:19;10.68;;;7.38;;
73120;SDS011;61307;49.628;-1.624;2023-02-15T07:02:48;9.50;;;7.03;;
73120;SDS011;61307;49.628;-1.624;2023-02-15T07:05:21;10.18;;;7.40;;
73120;SDS011;61307;49.628;-1.624;2023-02-15T07:07:49;9.77;;;7.85;;
73120;SDS011;61307;49.628;-1.624;2023-02-15T07:10:17;9.65;;;7.32;;
73120;SDS011;61307;49.628;-1.624;2023-02-15T07:12:45;11.52;;;7.15;;
73120;SDS011;61307;49.628;-1.624;2023-02-15T07:15:12;9.00;;;6.93;;
73120;SDS011;61307;49.628;-1.624;2023-02-15T07:17:41;9.40;;;7.28;;
73120;SDS011;61307;49.628;-1.624;2023-02-15T07:20:10;9.55;;;7.13;;
73120;SDS011;61307;49.628;-1.624;2023-02-15T07:22:41;8.73;;;7.05;;
73120;SDS011;61307;49.628;-1.624;2023-02-15T07:25:09;8.90;;;6.85;;
73120;SDS011;61307;49.628;-1.624;2023-02-15T07:27:39;9.15;;;7.13;;
73120;SDS011;61307;49.628;-1.624;2023-02-15T07:30:09;8.88;;;7.05;;
73120;SDS011;61307;49.628;-1.624;2023-02-15T07:32:37;9.45;;;6.70;;
73120;SDS011;61307;49.628;-1.624;2023-02-15T07:35:25;10.43;;;6.40;;
73120;SDS011;61307;49.628;-1.624;2023-02-15T07:37:53;8.98;;;6.55;;
73120;SDS011;61307;49.628;-1.624;2023-02-15T07:40:20;10.30;;;6.30;;
73120;SDS011;61307;49.628;-1.624;2023-02-15T07:42:48;9.05;;;6.70;;
73120;SDS011;61307;49.628;-1.624;2023-02-15T07:45:21;10.48;;;6.88;;
73120;SDS011;61307;49.628;-1.624;2023-02-15T07:47:48;10.45;;;8.02;;
73120;SDS011;61307;49.628;-1.624;2023-02-15T07:50:16;12.00;;;9.05;;
73120;SDS011;61307;49.628;-1.624;2023-02-15T07:52:44;11.68;;;9.23;;
73120;SDS011;61307;49.628;-1.624;2023-02-15T07:55:11;12.45;;;9.07;;
73120;SDS011;61307;49.628;-1.624;2023-02-15T07:57:41;15.30;;;8.52;;
73120;SDS011;61307;49.628;-1.624;2023-02-15T08:00:13;13.40;;;9.80;;
73120;SDS011;61307;49.628;-1.624;2023-02-15T08:02:50;15.40;;;9.15;;
73120;SDS011;61307;49.628;-1.624;2023-02-15T08:05:38;10.70;;;8.48;;
73120;SDS011;61307;49.628;-1.624;2023-02-15T08:08:08;10.93;;;8.68;;
73120;SDS011;61307;49.628;-1.624;2023-02-15T08:10:57;10.57;;;8.45;;
73120;SDS011;61307;49.628;-1.624;2023-02-15T08:13:42;16.08;;;8.65;;
73120;SDS011;61307;49.628;-1.624;2023-02-15T08:16:19;18.80;;;8.93;;
73120;SDS011;61307;49.628;-1.624;2023-02-15T08:18:53;12.50;;;8.50;;
73120;SDS011;61307;49.628;-1.624;2023-02-15T08:21:21;11.63;;;8.82;;
73120;SDS011;61307;49.628;-1.624;2023-02-15T08:23:49;14.77;;;8.88;;
73120;SDS011;61307;49.628;-1.624;2023-02-15T08:26:17;11.45;;;8.07;;
73120;SDS011;61307;49.628;-1.624;2023-02-15T08:28:46;12.52;;;9.02;;
73120;SDS011;61307;49.628;-1.624;2023-02-15T08:31:14;13.20;;;8.55;;
73120;SDS011;61307;49.628;-1.624;2023-02-15T08:33:42;15.80;;;8.63;;
73120;SDS011;61307;49.628;-1.624;2023-02-15T08:36:12;12.80;;;8.90;;
73120;SDS011;61307;49.628;-1.624;2023-02-15T08:38:42;13.23;;;8.32;;
73120;SDS011;61307;49.628;-1.624;2023-02-15T08:41:11;14.30;;;8.02;;
73120;SDS011;61307;49.628;-1.624;2023-02-15T08:43:41;12.50;;;7.90;;
73120;SDS011;61307;49.628;-1.624;2023-02-15T08:46:09;13.65;;;7.80;;
73120;SDS011;61307;49.628;-1.624;2023-02-15T08:48:37;11.05;;;7.32;;
73120;SDS011;61307;49.628;-1.624;2023-02-15T08:51:05;14.27;;;8.57;;
73120;SDS011;61307;49.628;-1.624;2023-02-15T08:53:37;14.32;;;7.55;;
73120;SDS011;61307;49.628;-1.624;2023-02-15T08:56:05;11.45;;;8.02;;
73120;SDS011;61307;49.628;-1.624;2023-02-15T08:58:33;11.43;;;7.63;;
73120;SDS011;61307;49.628;-1.624;2023-02-15T09:01:01;11.38;;;8.02;;
73120;SDS011;61307;49.628;-1.624;2023-02-15T09:03:34;11.25;;;7.50;;
73120;SDS011;61307;49.628;-1.624;2023-02-15T09:06:01;11.60;;;7.53;;
73120;SDS011;61307;49.628;-1.624;2023-02-15T09:08:32;11.60;;;7.53;;
73120;SDS011;61307;49.628;-1.624;2023-02-15T09:11:08;10.77;;;6.78;;
73120;SDS011;61307;49.628;-1.624;2023-02-15T09:13:36;10.98;;;7.28;;
73120;SDS011;61307;49.628;-1.624;2023-02-15T09:16:05;10.55;;;7.55;;
73120;SDS011;61307;49.628;-1.624;2023-02-15T09:18:35;14.50;;;7.90;;
73120;SDS011;61307;49.628;-1.624;2023-02-15T09:21:04;13.73;;;7.82;;
73120;SDS011;61307;49.628;-1.624;2023-02-15T09:23:33;8.75;;;7.18;;
73120;SDS011;61307;49.628;-1.624;2023-02-15T09:26:02;13.82;;;7.57;;
73120;SDS011;61307;49.628;-1.624;2023-02-15T09:28:33;15.57;;;7.78;;
73120;SDS011;61307;49.628;-1.624;2023-02-15T09:31:05;10.48;;;7.10;;
73120;SDS011;61307;49.628;-1.624;2023-02-15T09:33:33;10.35;;;7.65;;
73120;SDS011;61307;49.628;-1.624;2023-02-15T09:36:01;9.15;;;6.97;;
73120;SDS011;61307;49.628;-1.624;2023-02-15T09:38:28;9.23;;;7.28;;
73120;SDS011;61307;49.628;-1.624;2023-02-15T09:41:03;10.07;;;7.40;;
73120;SDS011;61307;49.628;-1.624;2023-02-15T09:43:40;11.20;;;7.50;;
73120;SDS011;61307;49.628;-1.624;2023-02-15T09:46:27;10.80;;;7.10;;
73120;SDS011;61307;49.628;-1.624;2023-02-15T09:49:13;8.82;;;7.03;;
73120;SDS011;61307;49.628;-1.624;2023-02-15T09:52:00;10.98;;;7.82;;
73120;SDS011;61307;49.628;-1.624;2023-02-15T09:55:00;12.32;;;7.03;;
73120;SDS011;61307;49.628;-1.624;2023-02-15T09:57:36;9.25;;;7.30;;
73120;SDS011;61307;49.628;-1.624;2023-02-15T10:00:12;12.13;;;7.63;;
73120;SDS011;61307;49.628;-1.624;2023-02-15T10:02:59;10.25;;;7.20;;
73120;SDS011;61307;49.628;-1.624;2023-02-15T10:05:37;10.45;;;7.68;;
73120;SDS011;61307;49.628;-1.624;2023-02-15T10:08:25;10.77;;;7.55;;
73120;SDS011;61307;49.628;-1.624;2023-02-15T10:11:15;10.25;;;7.68;;
73120;SDS011;61307;49.628;-1.624;2023-02-15T10:14:08;8.98;;;7.20;;
73120;SDS011;61307;49.628;-1.624;2023-02-15T10:16:50;11.40;;;7.97;;
73120;SDS011;61307;49.628;-1.624;2023-02-15T10:19:25;14.45;;;8.40;;
73120;SDS011;61307;49.628;-1.624;2023-02-15T10:22:03;10.13;;;7.82;;
73120;SDS011;61307;49.628;-1.624;2023-02-15T10:24:55;10.93;;;8.35;;
73120;SDS011;61307;49.628;-1.624;2023-02-15T10:27:38;14.88;;;8.32;;
73120;SDS011;61307;49.628;-1.624;2023-02-15T10:30:12;14.23;;;7.65;;
73120;SDS011;61307;49.628;-1.624;2023-02-15T10:32:43;11.05;;;7.75;;
73120;SDS011;61307;49.628;-1.624;2023-02-15T10:35:19;13.30;;;7.90;;
73120;SDS011;61307;49.628;-1.624;2023-02-15T10:38:01;10.38;;;7.75;;
73120;SDS011;61307;49.628;-1.624;2023-02-15T10:40:59;8.88;;;7.30;;
73120;SDS011;61307;49.628;-1.624;2023-02-15T10:43:49;10.55;;;7.53;;
73120;SDS011;61307;49.628;-1.624;2023-02-15T10:46:36;9.02;;;6.90;;
73120;SDS011;61307;49.628;-1.624;2023-02-15T10:52:10;11.27;;;7.63;;
73120;SDS011;61307;49.628;-1.624;2023-02-15T10:54:46;10.23;;;7.55;;
73120;SDS011;61307;49.628;-1.624;2023-02-15T10:57:19;10.85;;;7.28;;
73120;SDS011;61307;49.628;-1.624;2023-02-15T10:59:56;10.40;;;7.53;;
73120;SDS011;61307;49.628;-1.624;2023-02-15T11:02:35;11.15;;;7.70;;
73120;SDS011;61307;49.628;-1.624;2023-02-15T11:05:23;11.05;;;7.43;;
73120;SDS011;61307;49.628;-1.624;2023-02-15T11:08:07;9.50;;;6.75;;
73120;SDS011;61307;49.628;-1.624;2023-02-15T11:10:37;14.00;;;7.03;;
73120;SDS011;61307;49.628;-1.624;2023-02-15T11:13:09;12.13;;;7.65;;
73120;SDS011;61307;49.628;-1.624;2023-02-15T11:15:40;13.40;;;7.32;;
73120;SDS011;61307;49.628;-1.624;2023-02-15T11:18:13;9.77;;;6.90;;
73120;SDS011;61307;49.628;-1.624;2023-02-15T11:20:49;12.05;;;7.30;;
73120;SDS011;61307;49.628;-1.624;2023-02-15T11:23:22;12.05;;;7.07;;
73120;SDS011;61307;49.628;-1.624;2023-02-15T11:25:53;13.25;;;7.15;;
73120;SDS011;61307;49.628;-1.624;2023-02-15T11:28:24;10.13;;;7.25;;
73120;SDS011;61307;49.628;-1.624;2023-02-15T11:30:55;11.00;;;7.50;;
73120;SDS011;61307;49.628;-1.624;2023-02-15T11:33:37;9.18;;;7.20;;
73120;SDS011;61307;49.628;-1.624;2023-02-15T11:36:11;13.93;;;7.88;;
73120;SDS011;61307;49.628;-1.624;2023-02-15T11:38:44;11.50;;;7.85;;
73120;SDS011;61307;49.628;-1.624;2023-02-15T11:41:16;13.65;;;8.13;;
73120;SDS011;61307;49.628;-1.624;2023-02-15T11:43:50;14.55;;;7.82;;
73120;SDS011;61307;49.628;-1.624;2023-02-15T11:46:26;16.63;;;7.60;;
73120;SDS011;61307;49.628;-1.624;2023-02-15T11:48:55;10.18;;;7.53;;
73120;SDS011;61307;49.628;-1.624;2023-02-15T11:51:26;9.73;;;7.72;;
73120;SDS011;61307;49.628;-1.624;2023-02-15T11:53:54;10.30;;;7.97;;
73120;SDS011;61307;49.628;-1.624;2023-02-15T11:56:22;10.82;;;8.02;;
73120;SDS011;61307;49.628;-1.624;2023-02-15T11:58:52;11.75;;;8.57;;
73120;SDS011;61307;49.628;-1.624;2023-02-15T12:01:24;13.32;;;8.60;;
73120;SDS011;61307;49.628;-1.624;2023-02-15T12:03:57;11.23;;;8.18;;
73120;SDS011;61307;49.628;-1.624;2023-02-15T12:06:29;12.15;;;7.68;;
73120;SDS011;61307;49.628;-1.624;2023-02-15T12:09:01;10.68;;;8.38;;
73120;SDS011;61307;49.628;-1.624;2023-02-15T12:11:34;12.10;;;7.85;;
73120;SDS011;61307;49.628;-1.624;2023-02-15T12:14:04;11.68;;;7.22;;
73120;SDS011;61307;49.628;-1.624;2023-02-15T12:16:34;12.00;;;7.97;;
73120;SDS011;61307;49.628;-1.624;2023-02-15T12:19:13;10.40;;;7.50;;
73120;SDS011;61307;49.628;-1.624;2023-02-15T12:21:56;12.20;;;7.70;;
73120;SDS011;61307;49.628;-1.624;2023-02-15T12:24:25;11.57;;;8.05;;
73120;SDS011;61307;49.628;-1.624;2023-02-15T12:26:58;14.05;;;7.82;;
73120;SDS011;61307;49.628;-1.624;2023-02-15T12:29:29;10.63;;;7.75;;
73120;SDS011;61307;49.628;-1.624;2023-02-15T12:32:01;13.88;;;7.75;;
73120;SDS011;61307;49.628;-1.624;2023-02-15T12:34:32;11.80;;;7.75;;
73120;SDS011;61307;49.628;-1.624;2023-02-15T12:37:10;11.38;;;7.80;;
73120;SDS011;61307;49.628;-1.624;2023-02-15T12:39:50;14.02;;;7.63;;
73120;SDS011;61307;49.628;-1.624;2023-02-15T12:42:19;11.38;;;7.80;;
73120;SDS011;61307;49.628;-1.624;2023-02-15T12:44:55;12.63;;;7.75;;
73120;SDS011;61307;49.628;-1.624;2023-02-15T12:47:25;9.07;;;7.28;;
73120;SDS011;61307;49.628;-1.624;2023-02-15T12:50:05;8.63;;;6.78;;
73120;SDS011;61307;49.628;-1.624;2023-02-15T12:52:43;9.02;;;6.80;;
73120;SDS011;61307;49.628;-1.624;2023-02-15T12:55:17;12.80;;;7.70;;
73120;SDS011;61307;49.628;-1.624;2023-02-15T12:57:47;9.32;;;7.68;;
73120;SDS011;61307;49.628;-1.624;2023-02-15T13:00:25;10.65;;;7.07;;
73120;SDS011;61307;49.628;-1.624;2023-02-15T13:02:57;9.63;;;7.47;;
73120;SDS011;61307;49.628;-1.624;2023-02-15T13:05:26;11.88;;;7.20;;
73120;SDS011;61307;49.628;-1.624;2023-02-15T13:08:01;12.90;;;7.40;;
73120;SDS011;61307;49.628;-1.624;2023-02-15T13:10:31;12.63;;;7.72;;
73120;SDS011;61307;49.628;-1.624;2023-02-15T13:13:08;10.93;;;8.05;;
73120;SDS011;61307;49.628;-1.624;2023-02-15T13:15:37;11.65;;;7.57;;
73120;SDS011;61307;49.628;-1.624;2023-02-15T13:18:10;18.88;;;7.55;;
73120;SDS011;61307;49.628;-1.624;2023-02-15T13:20:42;12.57;;;7.82;;
73120;SDS011;61307;49.628;-1.624;2023-02-15T13:23:18;13.15;;;8.05;;
73120;SDS011;61307;49.628;-1.624;2023-02-15T13:25:52;12.32;;;7.78;;
73120;SDS011;61307;49.628;-1.624;2023-02-15T13:28:22;10.20;;;7.25;;
73120;SDS011;61307;49.628;-1.624;2023-02-15T13:30:54;15.00;;;7.45;;
73120;SDS011;61307;49.628;-1.624;2023-02-15T13:33:25;11.23;;;8.27;;
73120;SDS011;61307;49.628;-1.624;2023-02-15T13:35:59;15.02;;;7.50;;
73120;SDS011;61307;49.628;-1.624;2023-02-15T13:38:49;13.43;;;8.23;;
73120;SDS011;61307;49.628;-1.624;2023-02-15T13:41:25;11.88;;;8.07;;
73120;SDS011;61307;49.628;-1.624;2023-02-15T13:44:01;11.35;;;8.00;;
73120;SDS011;61307;49.628;-1.624;2023-02-15T13:46:38;11.05;;;7.82;;
73120;SDS011;61307;49.628;-1.624;2023-02-15T13:49:18;10.88;;;8.32;;
73120;SDS011;61307;49.628;-1.624;2023-02-15T13:52:08;11.10;;;8.25;;
73120;SDS011;61307;49.628;-1.624;2023-02-15T13:55:10;12.70;;;8.32;;
73120;SDS011;61307;49.628;-1.624;2023-02-15T13:58:05;11.30;;;8.02;;
73120;SDS011;61307;49.628;-1.624;2023-02-15T14:00:57;14.65;;;8.35;;
73120;SDS011;61307;49.628;-1.624;2023-02-15T14:03:52;13.32;;;8.55;;
73120;SDS011;61307;49.628;-1.624;2023-02-15T14:06:58;22.35;;;7.90;;
73120;SDS011;61307;49.628;-1.624;2023-02-15T14:09:52;10.45;;;7.72;;
73120;SDS011;61307;49.628;-1.624;2023-02-15T14:12:49;13.00;;;7.32;;
73120;SDS011;61307;49.628;-1.624;2023-02-15T14:15:35;11.60;;;7.15;;
73120;SDS011;61307;49.628;-1.624;2023-02-15T14:18:17;14.75;;;7.57;;
73120;SDS011;61307;49.628;-1.624;2023-02-15T14:20:56;13.52;;;8.13;;
73120;SDS011;61307;49.628;-1.624;2023-02-15T14:23:48;10.82;;;7.82;;
73120;SDS011;61307;49.628;-1.624;2023-02-15T14:26:35;11.35;;;7.55;;
73120;SDS011;61307;49.628;-1.624;2023-02-15T14:29:16;13.32;;;7.32;;
73120;SDS011;61307;49.628;-1.624;2023-02-15T14:31:55;11.15;;;6.80;;
73120;SDS011;61307;49.628;-1.624;2023-02-15T14:34:41;14.95;;;8.07;;
73120;SDS011;61307;49.628;-1.624;2023-02-15T14:37:28;14.93;;;7.22;;
73120;SDS011;61307;49.628;-1.624;2023-02-15T14:40:08;14.98;;;7.20;;
73120;SDS011;61307;49.628;-1.624;2023-02-15T14:43:04;11.20;;;6.97;;
73120;SDS011;61307;49.628;-1.624;2023-02-15T14:45:39;17.67;;;7.15;;
73120;SDS011;61307;49.628;-1.624;2023-02-15T14:48:15;10.52;;;7.32;;
73120;SDS011;61307;49.628;-1.624;2023-02-15T14:50:47;12.00;;;7.00;;
73120;SDS011;61307;49.628;-1.624;2023-02-15T14:53:15;14.75;;;6.93;;
73120;SDS011;61307;49.628;-1.624;2023-02-15T14:56:02;10.35;;;6.80;;
73120;SDS011;61307;49.628;-1.624;2023-02-15T14:58:35;12.25;;;7.22;;
73120;SDS011;61307;49.628;-1.624;2023-02-15T15:01:04;10.52;;;7.03;;
73120;SDS011;61307;49.628;-1.624;2023-02-15T15:03:32;12.60;;;6.65;;